sensor_id;sensor_type;location;lat;lon;timestamp;P1;durP1;ratioP1;P2;durP2;ratioP2
23370;SDS011;11858;51.056;3.712;2022-12-05T00:01:50;83.65;;;50.25;;
23370;SDS011;11858;51.056;3.712;2022-12-05T00:04:16;82.35;;;51.15;;
23370;SDS011;11858;51.056;3.712;2022-12-05T00:06:42;80.15;;;52.15;;
23370;SDS011;11858;51.056;3.712;2022-12-05T00:09:08;82.75;;;51.13;;
23370;SDS011;11858;51.056;3.712;2022-12-05T00:11:36;79.18;;;49.58;;
23370;SDS011;11858;51.056;3.712;2022-12-05T00:14:03;81.13;;;51.30;;
23370;SDS011;11858;51.056;3.712;2022-12-05T00:16:31;75.93;;;50.17;;
23370;SDS011;11858;51.056;3.712;2022-12-05T00:19:01;81.18;;;50.45;;
23370;SDS011;11858;51.056;3.712;2022-12-05T00:21:29;81.22;;;51.13;;
23370;SDS011;11858;51.056;3.712;2022-12-05T00:23:56;77.82;;;51.00;;
23370;SDS011;11858;51.056;3.712;2022-12-05T00:26:23;80.03;;;51.22;;
23370;SDS011;11858;51.056;3.712;2022-12-05T00:28:49;93.53;;;52.80;;
23370;SDS011;11858;51.056;3.712;2022-12-05T00:31:16;77.85;;;49.50;;
23370;SDS011;11858;51.056;3.712;2022-12-05T00:33:45;79.28;;;49.70;;
23370;SDS011;11858;51.056;3.712;2022-12-05T00:36:18;81.32;;;50.50;;
23370;SDS011;11858;51.056;3.712;2022-12-05T00:38:44;80.90;;;50.65;;
23370;SDS011;11858;51.056;3.712;2022-12-05T00:41:17;74.72;;;49.63;;
23370;SDS011;11858;51.056;3.712;2022-12-05T00:43:45;77.68;;;50.75;;
23370;SDS011;11858;51.056;3.712;2022-12-05T00:46:21;77.95;;;50.30;;
23370;SDS011;11858;51.056;3.712;2022-12-05T00:48:48;77.28;;;50.30;;
23370;SDS011;11858;51.056;3.712;2022-12-05T00:51:15;76.82;;;49.83;;
23370;SDS011;11858;51.056;3.712;2022-12-05T00:53:42;75.55;;;49.28;;
23370;SDS011;11858;51.056;3.712;2022-12-05T00:56:14;76.07;;;50.25;;
23370;SDS011;11858;51.056;3.712;2022-12-05T00:58:42;79.45;;;49.88;;
23370;SDS011;11858;51.056;3.712;2022-12-05T01:01:13;78.25;;;49.67;;
23370;SDS011;11858;51.056;3.712;2022-12-05T01:03:41;77.13;;;50.22;;
23370;SDS011;11858;51.056;3.712;2022-12-05T01:06:09;73.30;;;49.42;;
23370;SDS011;11858;51.056;3.712;2022-12-05T01:08:36;75.47;;;50.28;;
23370;SDS011;11858;51.056;3.712;2022-12-05T01:11:01;73.80;;;50.17;;
23370;SDS011;11858;51.056;3.712;2022-12-05T01:13:28;75.35;;;50.30;;
23370;SDS011;11858;51.056;3.712;2022-12-05T01:15:54;72.97;;;50.05;;
23370;SDS011;11858;51.056;3.712;2022-12-05T01:18:21;77.60;;;49.80;;
23370;SDS011;11858;51.056;3.712;2022-12-05T01:20:47;73.07;;;50.70;;
23370;SDS011;11858;51.056;3.712;2022-12-05T01:23:14;77.30;;;50.72;;
23370;SDS011;11858;51.056;3.712;2022-12-05T01:25:41;73.25;;;49.63;;
23370;SDS011;11858;51.056;3.712;2022-12-05T01:28:08;72.93;;;48.97;;
23370;SDS011;11858;51.056;3.712;2022-12-05T01:30:37;76.25;;;49.58;;
23370;SDS011;11858;51.056;3.712;2022-12-05T01:33:04;58.95;;;43.60;;
23370;SDS011;11858;51.056;3.712;2022-12-05T01:35:34;72.13;;;48.85;;
23370;SDS011;11858;51.056;3.712;2022-12-05T01:38:01;73.22;;;48.80;;
23370;SDS011;11858;51.056;3.712;2022-12-05T01:40:27;71.80;;;48.00;;
23370;SDS011;11858;51.056;3.712;2022-12-05T01:42:53;73.47;;;49.92;;
23370;SDS011;11858;51.056;3.712;2022-12-05T01:45:38;78.13;;;49.35;;
23370;SDS011;11858;51.056;3.712;2022-12-05T01:48:19;69.32;;;47.92;;
23370;SDS011;11858;51.056;3.712;2022-12-05T01:50:53;72.03;;;49.28;;
23370;SDS011;11858;51.056;3.712;2022-12-05T01:53:20;78.63;;;50.50;;
23370;SDS011;11858;51.056;3.712;2022-12-05T01:55:46;74.82;;;48.55;;
23370;SDS011;11858;51.056;3.712;2022-12-05T01:58:14;69.30;;;47.90;;
23370;SDS011;11858;51.056;3.712;2022-12-05T02:00:40;76.82;;;49.80;;
23370;SDS011;11858;51.056;3.712;2022-12-05T02:03:07;77.40;;;49.70;;
23370;SDS011;11858;51.056;3.712;2022-12-05T02:05:37;67.90;;;47.90;;
23370;SDS011;11858;51.056;3.712;2022-12-05T02:08:04;71.35;;;47.30;;
23370;SDS011;11858;51.056;3.712;2022-12-05T02:10:35;61.25;;;42.80;;
23370;SDS011;11858;51.056;3.712;2022-12-05T02:13:26;72.80;;;47.63;;
23370;SDS011;11858;51.056;3.712;2022-12-05T02:16:01;71.57;;;48.70;;
23370;SDS011;11858;51.056;3.712;2022-12-05T02:19:20;72.88;;;48.88;;
23370;SDS011;11858;51.056;3.712;2022-12-05T02:22:20;72.38;;;48.17;;
23370;SDS011;11858;51.056;3.712;2022-12-05T02:24:57;73.88;;;48.58;;
23370;SDS011;11858;51.056;3.712;2022-12-05T02:30:26;77.20;;;49.92;;
23370;SDS011;11858;51.056;3.712;2022-12-05T02:33:06;77.13;;;49.88;;
23370;SDS011;11858;51.056;3.712;2022-12-05T02:41:16;76.60;;;49.28;;
23370;SDS011;11858;51.056;3.712;2022-12-05T02:46:21;76.22;;;48.88;;
23370;SDS011;11858;51.056;3.712;2022-12-05T02:48:50;78.90;;;49.28;;
23370;SDS011;11858;51.056;3.712;2022-12-05T02:51:24;76.43;;;48.38;;
23370;SDS011;11858;51.056;3.712;2022-12-05T02:53:54;77.05;;;49.35;;
23370;SDS011;11858;51.056;3.712;2022-12-05T02:56:23;74.75;;;48.50;;
23370;SDS011;11858;51.056;3.712;2022-12-05T02:58:51;77.57;;;49.85;;
23370;SDS011;11858;51.056;3.712;2022-12-05T03:01:19;77.25;;;49.10;;
23370;SDS011;11858;51.056;3.712;2022-12-05T03:03:47;78.25;;;47.72;;
23370;SDS011;11858;51.056;3.712;2022-12-05T03:06:18;73.15;;;47.63;;
23370;SDS011;11858;51.056;3.712;2022-12-05T03:08:52;74.35;;;48.95;;
23370;SDS011;11858;51.056;3.712;2022-12-05T03:11:33;76.03;;;48.13;;
23370;SDS011;11858;51.056;3.712;2022-12-05T03:14:05;78.80;;;49.15;;
23370;SDS011;11858;51.056;3.712;2022-12-05T03:16:46;80.82;;;49.50;;
23370;SDS011;11858;51.056;3.712;2022-12-05T03:19:16;77.10;;;48.25;;
23370;SDS011;11858;51.056;3.712;2022-12-05T03:21:54;74.50;;;48.90;;
23370;SDS011;11858;51.056;3.712;2022-12-05T03:24:24;81.20;;;49.22;;
23370;SDS011;11858;51.056;3.712;2022-12-05T03:29:35;79.63;;;50.08;;
23370;SDS011;11858;51.056;3.712;2022-12-05T03:32:15;82.70;;;48.97;;
23370;SDS011;11858;51.056;3.712;2022-12-05T03:43:09;74.05;;;47.60;;
23370;SDS011;11858;51.056;3.712;2022-12-05T03:45:48;78.85;;;49.00;;
23370;SDS011;11858;51.056;3.712;2022-12-05T03:51:27;85.05;;;51.75;;
23370;SDS011;11858;51.056;3.712;2022-12-05T03:54:10;80.80;;;50.13;;
23370;SDS011;11858;51.056;3.712;2022-12-05T03:56:41;79.88;;;50.67;;
23370;SDS011;11858;51.056;3.712;2022-12-05T03:59:16;79.20;;;48.33;;
23370;SDS011;11858;51.056;3.712;2022-12-05T04:01:52;85.50;;;64.35;;
23370;SDS011;11858;51.056;3.712;2022-12-05T04:04:44;81.38;;;62.97;;
23370;SDS011;11858;51.056;3.712;2022-12-05T04:07:11;84.43;;;61.53;;
23370;SDS011;11858;51.056;3.712;2022-12-05T04:09:43;89.32;;;63.47;;
23370;SDS011;11858;51.056;3.712;2022-12-05T04:12:14;83.30;;;64.03;;
23370;SDS011;11858;51.056;3.712;2022-12-05T04:14:47;90.70;;;63.58;;
23370;SDS011;11858;51.056;3.712;2022-12-05T04:17:20;83.70;;;62.13;;
23370;SDS011;11858;51.056;3.712;2022-12-05T04:20:13;87.95;;;63.28;;
23370;SDS011;11858;51.056;3.712;2022-12-05T04:23:19;87.60;;;66.22;;
23370;SDS011;11858;51.056;3.712;2022-12-05T04:31:20;89.30;;;64.57;;
23370;SDS011;11858;51.056;3.712;2022-12-05T04:33:59;89.50;;;65.05;;
23370;SDS011;11858;51.056;3.712;2022-12-05T04:36:39;95.18;;;66.15;;
23370;SDS011;11858;51.056;3.712;2022-12-05T04:39:16;91.28;;;67.38;;
23370;SDS011;11858;51.056;3.712;2022-12-05T04:41:48;86.82;;;64.55;;
23370;SDS011;11858;51.056;3.712;2022-12-05T04:44:35;89.97;;;64.68;;
23370;SDS011;11858;51.056;3.712;2022-12-05T04:47:07;94.43;;;66.47;;
23370;SDS011;11858;51.056;3.712;2022-12-05T04:49:34;96.03;;;66.47;;
23370;SDS011;11858;51.056;3.712;2022-12-05T04:52:03;88.93;;;63.53;;
23370;SDS011;11858;51.056;3.712;2022-12-05T04:57:09;95.55;;;65.10;;
23370;SDS011;11858;51.056;3.712;2022-12-05T04:59:36;89.65;;;63.35;;
23370;SDS011;11858;51.056;3.712;2022-12-05T05:02:04;94.85;;;63.85;;
23370;SDS011;11858;51.056;3.712;2022-12-05T05:04:37;92.30;;;63.43;;
23370;SDS011;11858;51.056;3.712;2022-12-05T05:07:07;94.68;;;65.38;;
23370;SDS011;11858;51.056;3.712;2022-12-05T05:09:35;94.80;;;66.32;;
23370;SDS011;11858;51.056;3.712;2022-12-05T05:12:02;93.03;;;67.72;;
23370;SDS011;11858;51.056;3.712;2022-12-05T05:14:28;95.72;;;65.55;;
23370;SDS011;11858;51.056;3.712;2022-12-05T05:16:54;99.35;;;65.85;;
23370;SDS011;11858;51.056;3.712;2022-12-05T05:19:21;88.05;;;64.38;;
23370;SDS011;11858;51.056;3.712;2022-12-05T05:21:47;94.40;;;65.07;;
23370;SDS011;11858;51.056;3.712;2022-12-05T05:24:13;96.32;;;64.20;;
23370;SDS011;11858;51.056;3.712;2022-12-05T05:26:41;92.05;;;64.07;;
23370;SDS011;11858;51.056;3.712;2022-12-05T05:29:08;96.10;;;64.35;;
23370;SDS011;11858;51.056;3.712;2022-12-05T05:31:35;89.13;;;61.88;;
23370;SDS011;11858;51.056;3.712;2022-12-05T05:34:02;89.00;;;61.60;;
23370;SDS011;11858;51.056;3.712;2022-12-05T05:36:27;82.88;;;61.17;;
23370;SDS011;11858;51.056;3.712;2022-12-05T05:38:54;87.18;;;61.35;;
23370;SDS011;11858;51.056;3.712;2022-12-05T05:41:26;85.18;;;58.83;;
23370;SDS011;11858;51.056;3.712;2022-12-05T05:43:55;82.05;;;60.38;;
23370;SDS011;11858;51.056;3.712;2022-12-05T05:46:22;83.03;;;59.38;;
23370;SDS011;11858;51.056;3.712;2022-12-05T05:48:50;82.68;;;61.05;;
23370;SDS011;11858;51.056;3.712;2022-12-05T05:51:16;85.80;;;59.83;;
23370;SDS011;11858;51.056;3.712;2022-12-05T05:53:42;80.32;;;60.25;;
23370;SDS011;11858;51.056;3.712;2022-12-05T05:56:12;86.18;;;61.33;;
23370;SDS011;11858;51.056;3.712;2022-12-05T05:58:40;83.72;;;60.13;;
23370;SDS011;11858;51.056;3.712;2022-12-05T06:01:06;79.20;;;60.08;;
23370;SDS011;11858;51.056;3.712;2022-12-05T06:03:37;78.97;;;60.80;;
23370;SDS011;11858;51.056;3.712;2022-12-05T06:06:04;80.10;;;59.05;;
23370;SDS011;11858;51.056;3.712;2022-12-05T06:08:32;78.43;;;58.60;;
23370;SDS011;11858;51.056;3.712;2022-12-05T06:11:03;81.50;;;59.50;;
23370;SDS011;11858;51.056;3.712;2022-12-05T06:13:29;81.18;;;58.67;;
23370;SDS011;11858;51.056;3.712;2022-12-05T06:15:55;76.30;;;59.47;;
23370;SDS011;11858;51.056;3.712;2022-12-05T06:18:20;85.28;;;59.70;;
23370;SDS011;11858;51.056;3.712;2022-12-05T06:20:52;79.97;;;60.25;;
23370;SDS011;11858;51.056;3.712;2022-12-05T06:23:20;83.65;;;62.75;;
23370;SDS011;11858;51.056;3.712;2022-12-05T06:25:49;87.53;;;63.00;;
23370;SDS011;11858;51.056;3.712;2022-12-05T06:28:17;89.13;;;63.20;;
23370;SDS011;11858;51.056;3.712;2022-12-05T06:30:45;94.47;;;65.35;;
23370;SDS011;11858;51.056;3.712;2022-12-05T06:33:11;87.93;;;55.15;;
23370;SDS011;11858;51.056;3.712;2022-12-05T06:35:37;84.75;;;54.47;;
23370;SDS011;11858;51.056;3.712;2022-12-05T06:38:04;85.53;;;53.33;;
23370;SDS011;11858;51.056;3.712;2022-12-05T06:40:31;96.25;;;55.72;;
23370;SDS011;11858;51.056;3.712;2022-12-05T06:42:57;84.05;;;53.25;;
23370;SDS011;11858;51.056;3.712;2022-12-05T06:45:22;88.32;;;53.25;;
23370;SDS011;11858;51.056;3.712;2022-12-05T06:47:49;89.50;;;54.20;;
23370;SDS011;11858;51.056;3.712;2022-12-05T06:50:15;98.97;;;55.60;;
23370;SDS011;11858;51.056;3.712;2022-12-05T06:52:41;91.25;;;54.92;;
23370;SDS011;11858;51.056;3.712;2022-12-05T06:55:07;93.03;;;53.38;;
23370;SDS011;11858;51.056;3.712;2022-12-05T06:57:33;85.90;;;52.17;;
23370;SDS011;11858;51.056;3.712;2022-12-05T06:59:59;91.07;;;53.85;;
23370;SDS011;11858;51.056;3.712;2022-12-05T07:02:43;86.43;;;53.13;;
23370;SDS011;11858;51.056;3.712;2022-12-05T07:05:09;83.43;;;51.97;;
23370;SDS011;11858;51.056;3.712;2022-12-05T07:07:36;82.57;;;52.55;;
23370;SDS011;11858;51.056;3.712;2022-12-05T07:10:02;80.72;;;51.13;;
23370;SDS011;11858;51.056;3.712;2022-12-05T07:12:31;77.88;;;50.50;;
23370;SDS011;11858;51.056;3.712;2022-12-05T07:14:57;83.85;;;51.05;;
23370;SDS011;11858;51.056;3.712;2022-12-05T07:17:23;82.38;;;49.65;;
23370;SDS011;11858;51.056;3.712;2022-12-05T07:19:49;79.63;;;49.47;;
23370;SDS011;11858;51.056;3.712;2022-12-05T07:22:16;81.07;;;49.42;;
23370;SDS011;11858;51.056;3.712;2022-12-05T07:24:43;79.85;;;49.42;;
23370;SDS011;11858;51.056;3.712;2022-12-05T07:27:09;78.82;;;49.65;;
23370;SDS011;11858;51.056;3.712;2022-12-05T07:29:35;76.63;;;50.20;;
23370;SDS011;11858;51.056;3.712;2022-12-05T07:32:01;77.35;;;48.85;;
23370;SDS011;11858;51.056;3.712;2022-12-05T07:34:27;75.20;;;49.75;;
23370;SDS011;11858;51.056;3.712;2022-12-05T07:36:53;75.55;;;48.92;;
23370;SDS011;11858;51.056;3.712;2022-12-05T07:39:19;74.40;;;48.38;;
23370;SDS011;11858;51.056;3.712;2022-12-05T07:41:44;74.55;;;48.65;;
23370;SDS011;11858;51.056;3.712;2022-12-05T07:44:10;78.35;;;49.58;;
23370;SDS011;11858;51.056;3.712;2022-12-05T07:46:37;76.85;;;49.35;;
23370;SDS011;11858;51.056;3.712;2022-12-05T07:49:03;73.22;;;47.75;;
23370;SDS011;11858;51.056;3.712;2022-12-05T07:51:28;76.40;;;49.20;;
23370;SDS011;11858;51.056;3.712;2022-12-05T07:53:54;79.05;;;48.75;;
23370;SDS011;11858;51.056;3.712;2022-12-05T07:56:22;75.30;;;49.03;;
23370;SDS011;11858;51.056;3.712;2022-12-05T07:58:48;76.68;;;50.45;;
23370;SDS011;11858;51.056;3.712;2022-12-05T08:01:21;75.65;;;48.65;;
23370;SDS011;11858;51.056;3.712;2022-12-05T08:03:48;85.60;;;50.22;;
23370;SDS011;11858;51.056;3.712;2022-12-05T08:06:17;79.57;;;51.10;;
23370;SDS011;11858;51.056;3.712;2022-12-05T08:08:44;77.45;;;50.47;;
23370;SDS011;11858;51.056;3.712;2022-12-05T08:11:15;79.93;;;51.40;;
23370;SDS011;11858;51.056;3.712;2022-12-05T08:13:43;203.50;;;69.30;;
23370;SDS011;11858;51.056;3.712;2022-12-05T08:16:11;128.93;;;56.90;;
23370;SDS011;11858;51.056;3.712;2022-12-05T08:18:38;112.22;;;53.35;;
23370;SDS011;11858;51.056;3.712;2022-12-05T08:21:05;88.63;;;50.83;;
23370;SDS011;11858;51.056;3.712;2022-12-05T08:23:33;83.47;;;50.88;;
23370;SDS011;11858;51.056;3.712;2022-12-05T08:26:10;204.45;;;67.35;;
23370;SDS011;11858;51.056;3.712;2022-12-05T08:28:45;84.85;;;51.78;;
23370;SDS011;11858;51.056;3.712;2022-12-05T08:31:14;80.20;;;50.47;;
23370;SDS011;11858;51.056;3.712;2022-12-05T08:33:41;79.90;;;50.13;;
23370;SDS011;11858;51.056;3.712;2022-12-05T08:36:08;170.73;;;62.15;;
23370;SDS011;11858;51.056;3.712;2022-12-05T08:38:39;130.35;;;61.17;;
23370;SDS011;11858;51.056;3.712;2022-12-05T08:41:07;97.93;;;60.65;;
23370;SDS011;11858;51.056;3.712;2022-12-05T08:43:37;90.70;;;50.38;;
23370;SDS011;11858;51.056;3.712;2022-12-05T08:46:03;81.18;;;49.22;;
23370;SDS011;11858;51.056;3.712;2022-12-05T08:48:29;83.88;;;49.97;;
23370;SDS011;11858;51.056;3.712;2022-12-05T08:50:56;80.57;;;49.22;;
23370;SDS011;11858;51.056;3.712;2022-12-05T08:53:23;85.28;;;50.88;;
23370;SDS011;11858;51.056;3.712;2022-12-05T08:55:49;83.30;;;50.20;;
23370;SDS011;11858;51.056;3.712;2022-12-05T08:58:15;96.85;;;53.38;;
23370;SDS011;11858;51.056;3.712;2022-12-05T09:00:41;87.57;;;52.22;;
23370;SDS011;11858;51.056;3.712;2022-12-05T09:03:08;87.68;;;52.08;;
23370;SDS011;11858;51.056;3.712;2022-12-05T09:05:35;241.13;;;72.20;;
23370;SDS011;11858;51.056;3.712;2022-12-05T09:08:00;124.43;;;56.78;;
23370;SDS011;11858;51.056;3.712;2022-12-05T09:10:26;97.75;;;54.28;;
23370;SDS011;11858;51.056;3.712;2022-12-05T09:12:52;90.70;;;53.50;;
23370;SDS011;11858;51.056;3.712;2022-12-05T09:15:18;244.55;;;75.32;;
23370;SDS011;11858;51.056;3.712;2022-12-05T09:17:44;180.02;;;64.45;;
23370;SDS011;11858;51.056;3.712;2022-12-05T09:20:10;267.60;;;82.25;;
23370;SDS011;11858;51.056;3.712;2022-12-05T09:22:38;148.88;;;63.80;;
23370;SDS011;11858;51.056;3.712;2022-12-05T09:25:06;99.93;;;54.83;;
23370;SDS011;11858;51.056;3.712;2022-12-05T09:27:33;79.50;;;50.90;;
23370;SDS011;11858;51.056;3.712;2022-12-05T09:29:58;81.18;;;51.33;;
23370;SDS011;11858;51.056;3.712;2022-12-05T09:32:24;86.88;;;50.67;;
23370;SDS011;11858;51.056;3.712;2022-12-05T09:34:50;550.47;;;141.93;;
23370;SDS011;11858;51.056;3.712;2022-12-05T09:37:15;121.15;;;58.80;;
23370;SDS011;11858;51.056;3.712;2022-12-05T09:39:45;180.00;;;66.10;;
23370;SDS011;11858;51.056;3.712;2022-12-05T09:44:52;162.68;;;60.58;;
23370;SDS011;11858;51.056;3.712;2022-12-05T09:49:53;72.00;;;47.60;;
23370;SDS011;11858;51.056;3.712;2022-12-05T09:52:40;153.45;;;60.20;;
23370;SDS011;11858;51.056;3.712;2022-12-05T09:55:23;190.85;;;66.03;;
23370;SDS011;11858;51.056;3.712;2022-12-05T09:57:50;72.68;;;47.83;;
23370;SDS011;11858;51.056;3.712;2022-12-05T10:00:27;89.65;;;49.90;;
23370;SDS011;11858;51.056;3.712;2022-12-05T10:03:11;180.15;;;62.85;;
23370;SDS011;11858;51.056;3.712;2022-12-05T10:06:13;65.75;;;45.95;;
23370;SDS011;11858;51.056;3.712;2022-12-05T10:08:53;157.60;;;58.63;;
23370;SDS011;11858;51.056;3.712;2022-12-05T10:16:48;62.58;;;44.22;;
23370;SDS011;11858;51.056;3.712;2022-12-05T10:19:21;63.83;;;45.83;;
23370;SDS011;11858;51.056;3.712;2022-12-05T10:24:43;82.50;;;52.40;;
23370;SDS011;11858;51.056;3.712;2022-12-05T10:27:20;70.03;;;46.80;;
23370;SDS011;11858;51.056;3.712;2022-12-05T10:30:03;71.00;;;45.72;;
23370;SDS011;11858;51.056;3.712;2022-12-05T10:32:53;68.57;;;45.47;;
23370;SDS011;11858;51.056;3.712;2022-12-05T10:35:21;62.03;;;44.60;;
23370;SDS011;11858;51.056;3.712;2022-12-05T10:37:50;62.95;;;43.92;;
23370;SDS011;11858;51.056;3.712;2022-12-05T10:40:18;63.60;;;44.92;;
23370;SDS011;11858;51.056;3.712;2022-12-05T10:42:44;60.42;;;44.25;;
23370;SDS011;11858;51.056;3.712;2022-12-05T10:45:19;60.92;;;43.35;;
23370;SDS011;11858;51.056;3.712;2022-12-05T10:47:47;59.35;;;43.22;;
23370;SDS011;11858;51.056;3.712;2022-12-05T10:50:24;60.90;;;44.20;;
23370;SDS011;11858;51.056;3.712;2022-12-05T10:52:55;62.58;;;43.22;;
23370;SDS011;11858;51.056;3.712;2022-12-05T10:55:22;136.95;;;55.22;;
23370;SDS011;11858;51.056;3.712;2022-12-05T10:58:07;55.53;;;41.85;;
23370;SDS011;11858;51.056;3.712;2022-12-05T11:00:33;62.50;;;44.83;;
23370;SDS011;11858;51.056;3.712;2022-12-05T11:02:59;57.55;;;44.55;;
23370;SDS011;11858;51.056;3.712;2022-12-05T11:05:29;58.63;;;44.00;;
23370;SDS011;11858;51.056;3.712;2022-12-05T11:07:57;70.20;;;50.03;;
23370;SDS011;11858;51.056;3.712;2022-12-05T11:13:00;57.03;;;44.53;;
23370;SDS011;11858;51.056;3.712;2022-12-05T11:15:30;62.05;;;45.67;;
23370;SDS011;11858;51.056;3.712;2022-12-05T11:17:57;56.97;;;42.58;;
23370;SDS011;11858;51.056;3.712;2022-12-05T11:20:42;54.53;;;42.45;;
23370;SDS011;11858;51.056;3.712;2022-12-05T11:23:22;53.83;;;43.30;;
23370;SDS011;11858;51.056;3.712;2022-12-05T11:25:50;57.45;;;43.88;;
23370;SDS011;11858;51.056;3.712;2022-12-05T11:33:33;60.38;;;43.33;;
23370;SDS011;11858;51.056;3.712;2022-12-05T11:38:46;62.55;;;43.60;;
23370;SDS011;11858;51.056;3.712;2022-12-05T11:44:11;52.83;;;41.63;;
23370;SDS011;11858;51.056;3.712;2022-12-05T12:06:28;53.13;;;40.42;;
23370;SDS011;11858;51.056;3.712;2022-12-05T12:14:18;58.13;;;41.80;;
23370;SDS011;11858;51.056;3.712;2022-12-05T12:16:53;56.50;;;41.63;;
23370;SDS011;11858;51.056;3.712;2022-12-05T12:37:11;52.40;;;42.10;;
23370;SDS011;11858;51.056;3.712;2022-12-05T12:42:27;53.85;;;41.25;;
23370;SDS011;11858;51.056;3.712;2022-12-05T12:47:47;57.20;;;43.42;;
23370;SDS011;11858;51.056;3.712;2022-12-05T12:50:32;55.17;;;42.00;;
23370;SDS011;11858;51.056;3.712;2022-12-05T12:56:12;60.45;;;46.05;;
23370;SDS011;11858;51.056;3.712;2022-12-05T12:58:49;57.08;;;43.63;;
23370;SDS011;11858;51.056;3.712;2022-12-05T13:04:07;64.25;;;44.90;;
23370;SDS011;11858;51.056;3.712;2022-12-05T13:11:58;76.68;;;48.85;;
23370;SDS011;11858;51.056;3.712;2022-12-05T13:14:28;113.75;;;64.25;;
23370;SDS011;11858;51.056;3.712;2022-12-05T13:16:57;83.93;;;51.65;;
23370;SDS011;11858;51.056;3.712;2022-12-05T13:19:28;67.72;;;47.25;;
23370;SDS011;11858;51.056;3.712;2022-12-05T13:22:05;60.83;;;46.22;;
23370;SDS011;11858;51.056;3.712;2022-12-05T13:24:32;65.05;;;47.60;;
23370;SDS011;11858;51.056;3.712;2022-12-05T13:27:05;76.25;;;49.88;;
23370;SDS011;11858;51.056;3.712;2022-12-05T13:29:34;63.33;;;46.33;;
23370;SDS011;11858;51.056;3.712;2022-12-05T13:32:05;68.82;;;48.53;;
23370;SDS011;11858;51.056;3.712;2022-12-05T13:34:49;71.45;;;48.55;;
23370;SDS011;11858;51.056;3.712;2022-12-05T13:37:18;75.38;;;47.90;;
23370;SDS011;11858;51.056;3.712;2022-12-05T13:40:04;86.88;;;58.55;;
23370;SDS011;11858;51.056;3.712;2022-12-05T13:43:01;78.07;;;52.33;;
23370;SDS011;11858;51.056;3.712;2022-12-05T13:45:29;67.75;;;47.47;;
23370;SDS011;11858;51.056;3.712;2022-12-05T13:48:01;63.60;;;47.97;;
23370;SDS011;11858;51.056;3.712;2022-12-05T13:55:58;68.70;;;48.72;;
23370;SDS011;11858;51.056;3.712;2022-12-05T14:01:29;63.30;;;46.20;;
23370;SDS011;11858;51.056;3.712;2022-12-05T14:03:58;73.57;;;48.53;;
23370;SDS011;11858;51.056;3.712;2022-12-05T14:12:29;67.00;;;45.53;;
23370;SDS011;11858;51.056;3.712;2022-12-05T14:17:25;72.13;;;49.17;;
23370;SDS011;11858;51.056;3.712;2022-12-05T14:25:29;68.13;;;49.10;;
23370;SDS011;11858;51.056;3.712;2022-12-05T14:33:28;75.25;;;49.15;;
23370;SDS011;11858;51.056;3.712;2022-12-05T14:35:56;79.70;;;50.35;;
23370;SDS011;11858;51.056;3.712;2022-12-05T14:38:31;72.47;;;48.90;;
23370;SDS011;11858;51.056;3.712;2022-12-05T14:43:57;57.78;;;45.20;;
23370;SDS011;11858;51.056;3.712;2022-12-05T14:46:25;66.32;;;46.08;;
23370;SDS011;11858;51.056;3.712;2022-12-05T14:48:54;63.83;;;47.05;;
23370;SDS011;11858;51.056;3.712;2022-12-05T14:53:54;59.30;;;43.90;;
23370;SDS011;11858;51.056;3.712;2022-12-05T14:56:26;59.55;;;44.35;;
23370;SDS011;11858;51.056;3.712;2022-12-05T14:59:00;59.78;;;44.72;;
23370;SDS011;11858;51.056;3.712;2022-12-05T15:06:54;52.70;;;40.60;;
23370;SDS011;11858;51.056;3.712;2022-12-05T15:17:55;54.40;;;40.45;;
23370;SDS011;11858;51.056;3.712;2022-12-05T15:29:06;44.97;;;37.72;;
23370;SDS011;11858;51.056;3.712;2022-12-05T15:31:54;47.10;;;37.88;;
23370;SDS011;11858;51.056;3.712;2022-12-05T15:42:22;47.00;;;38.22;;
23370;SDS011;11858;51.056;3.712;2022-12-05T15:47:45;48.28;;;40.75;;
23370;SDS011;11858;51.056;3.712;2022-12-05T15:50:13;55.67;;;41.20;;
23370;SDS011;11858;51.056;3.712;2022-12-05T15:53:09;50.28;;;39.20;;
23370;SDS011;11858;51.056;3.712;2022-12-05T15:55:50;47.72;;;39.38;;
23370;SDS011;11858;51.056;3.712;2022-12-05T15:58:26;49.45;;;39.53;;
23370;SDS011;11858;51.056;3.712;2022-12-05T16:01:19;49.63;;;40.70;;
23370;SDS011;11858;51.056;3.712;2022-12-05T16:08:54;49.08;;;40.97;;
23370;SDS011;11858;51.056;3.712;2022-12-05T16:11:21;52.67;;;41.13;;
23370;SDS011;11858;51.056;3.712;2022-12-05T16:13:51;51.70;;;41.65;;
23370;SDS011;11858;51.056;3.712;2022-12-05T16:16:22;51.90;;;40.13;;
23370;SDS011;11858;51.056;3.712;2022-12-05T16:18:57;50.72;;;40.83;;
23370;SDS011;11858;51.056;3.712;2022-12-05T16:24:20;47.03;;;38.90;;
23370;SDS011;11858;51.056;3.712;2022-12-05T16:27:13;50.20;;;39.55;;
23370;SDS011;11858;51.056;3.712;2022-12-05T16:29:38;55.38;;;42.60;;
23370;SDS011;11858;51.056;3.712;2022-12-05T16:32:18;60.42;;;46.08;;
23370;SDS011;11858;51.056;3.712;2022-12-05T16:34:47;52.95;;;43.72;;
23370;SDS011;11858;51.056;3.712;2022-12-05T16:37:26;52.33;;;41.97;;
23370;SDS011;11858;51.056;3.712;2022-12-05T16:39:53;54.20;;;42.25;;
23370;SDS011;11858;51.056;3.712;2022-12-05T16:42:26;52.80;;;42.65;;
23370;SDS011;11858;51.056;3.712;2022-12-05T16:44:55;55.55;;;42.17;;
23370;SDS011;11858;51.056;3.712;2022-12-05T16:53:00;49.92;;;40.00;;
23370;SDS011;11858;51.056;3.712;2022-12-05T16:55:28;52.20;;;41.00;;
23370;SDS011;11858;51.056;3.712;2022-12-05T16:57:53;55.47;;;42.78;;
23370;SDS011;11858;51.056;3.712;2022-12-05T17:00:21;59.92;;;43.88;;
23370;SDS011;11858;51.056;3.712;2022-12-05T17:02:46;60.63;;;50.00;;
23370;SDS011;11858;51.056;3.712;2022-12-05T17:05:12;53.70;;;46.90;;
23370;SDS011;11858;51.056;3.712;2022-12-05T17:07:38;55.20;;;46.17;;
23370;SDS011;11858;51.056;3.712;2022-12-05T17:10:04;52.65;;;45.53;;
23370;SDS011;11858;51.056;3.712;2022-12-05T17:12:31;50.35;;;44.97;;
23370;SDS011;11858;51.056;3.712;2022-12-05T17:14:57;49.92;;;44.45;;
23370;SDS011;11858;51.056;3.712;2022-12-05T17:17:22;64.20;;;46.90;;
23370;SDS011;11858;51.056;3.712;2022-12-05T17:19:48;53.72;;;43.67;;
23370;SDS011;11858;51.056;3.712;2022-12-05T17:22:14;52.90;;;43.40;;
23370;SDS011;11858;51.056;3.712;2022-12-05T17:24:40;50.75;;;42.75;;
23370;SDS011;11858;51.056;3.712;2022-12-05T17:27:12;51.70;;;43.30;;
23370;SDS011;11858;51.056;3.712;2022-12-05T17:29:38;49.05;;;43.67;;
23370;SDS011;11858;51.056;3.712;2022-12-05T17:32:04;47.67;;;41.15;;
23370;SDS011;11858;51.056;3.712;2022-12-05T17:34:30;43.78;;;39.35;;
23370;SDS011;11858;51.056;3.712;2022-12-05T17:36:55;45.88;;;41.15;;
23370;SDS011;11858;51.056;3.712;2022-12-05T17:39:21;46.63;;;41.55;;
23370;SDS011;11858;51.056;3.712;2022-12-05T17:41:47;46.95;;;42.15;;
23370;SDS011;11858;51.056;3.712;2022-12-05T17:44:13;44.55;;;40.05;;
23370;SDS011;11858;51.056;3.712;2022-12-05T17:46:40;45.25;;;40.78;;
23370;SDS011;11858;51.056;3.712;2022-12-05T17:49:13;42.80;;;38.47;;
23370;SDS011;11858;51.056;3.712;2022-12-05T17:51:40;41.50;;;37.65;;
23370;SDS011;11858;51.056;3.712;2022-12-05T17:54:07;44.50;;;39.88;;
23370;SDS011;11858;51.056;3.712;2022-12-05T17:56:32;42.45;;;38.00;;
23370;SDS011;11858;51.056;3.712;2022-12-05T17:58:58;43.67;;;38.97;;
23370;SDS011;11858;51.056;3.712;2022-12-05T18:01:24;43.33;;;38.92;;